Time;durP1;ratioP1;P1;durP2;ratioP2;P2;SDS_P1;SDS_P2;PMS_P1;PMS_P2;Temp;Humidity;BMP_temperature;BMP_pressure;BME280_temperature;BME280_humidity;BME280_pressure;Samples;Min_cycle;Max_cycle;Signal;HPM_P1;HPM_P2
2022/08/08 00:00:19;;;;;;;6.90;3.53;;;15.40;99.90;;;;;;5049301;28;20037;-81
2022/08/08 00:03:00;;;;;;;4.03;2.88;;;15.40;99.90;;;;;;5020308;28;20478;-80
2022/08/08 00:05:48;;;;;;;6.63;3.20;;;15.30;99.90;;;;;;5038545;28;20041;-80
2022/08/08 00:08:23;;;;;;;4.20;3.33;;;15.20;99.90;;;;;;5017619;28;20044;-79
2022/08/08 00:11:12;;;;;;;5.13;3.70;;;15.10;99.90;;;;;;5027153;28;20041;-80
2022/08/08 00:13:45;;;;;;;6.53;3.42;;;15.10;99.90;;;;;;5034469;28;20033;-80
2022/08/08 00:16:18;;;;;;;2.65;2.45;;;15.00;99.90;;;;;;5039679;28;20037;-80
2022/08/08 00:18:59;;;;;;;4.38;2.33;;;14.90;99.90;;;;;;5035818;28;20671;-80
2022/08/08 00:21:31;;;;;;;2.65;1.70;;;14.90;99.90;;;;;;5038152;28;20091;-80
2022/08/08 00:24:01;;;;;;;2.47;2.20;;;14.80;99.90;;;;;;5041761;28;20057;-80
2022/08/08 00:26:32;;;;;;;1.75;1.60;;;14.70;99.90;;;;;;5040424;28;20034;-80
2022/08/08 00:29:06;;;;;;;2.28;2.05;;;14.70;99.90;;;;;;5042265;28;20116;-81
2022/08/08 00:31:36;;;;;;;3.72;2.47;;;14.60;99.90;;;;;;5049714;28;20037;-80
2022/08/08 00:37:25;;;;;;;2.17;1.98;;;14.60;99.90;;;;;;5037088;28;20044;-80
2022/08/08 00:40:07;;;;;;;3.60;1.90;;;14.50;99.90;;;;;;5050410;28;20102;-80
2022/08/08 00:43:10;;;;;;;2.28;2.08;;;14.40;99.90;;;;;;5040495;28;20098;-80
2022/08/08 00:45:59;;;;;;;3.10;2.00;;;14.40;99.90;;;;;;5041010;28;20065;-80
2022/08/08 00:48:59;;;;;;;2.75;2.20;;;14.30;99.90;;;;;;5035158;28;20047;-81
2022/08/08 00:51:33;;;;;;;4.50;3.20;;;14.30;99.90;;;;;;5036851;28;20448;-81
2022/08/08 00:54:22;;;;;;;2.47;2.22;;;14.30;99.90;;;;;;5039450;28;20124;-81
2022/08/08 00:57:25;;;;;;;3.70;2.55;;;14.30;99.90;;;;;;5044352;28;20041;-81
2022/08/08 01:00:06;;;;;;;2.75;2.22;;;14.30;99.90;;;;;;5039608;28;20037;-81
2022/08/08 01:02:37;;;;;;;5.55;2.90;;;14.30;99.90;;;;;;5032108;28;20039;-81
2022/08/08 01:05:32;;;;;;;3.80;2.88;;;14.30;99.90;;;;;;5039203;28;20081;-81
2022/08/08 01:08:37;;;;;;;3.63;2.90;;;14.30;99.90;;;;;;5037624;28;20043;-81
2022/08/08 01:11:41;;;;;;;3.08;2.75;;;14.20;99.90;;;;;;5024979;28;20057;-81
2022/08/08 01:14:50;;;;;;;3.22;2.92;;;14.20;99.90;;;;;;5042768;28;20531;-81
2022/08/08 01:17:18;;;;;;;4.43;2.85;;;14.10;99.90;;;;;;5041329;28;20033;-81
2022/08/08 01:19:59;;;;;;;4.93;2.88;;;14.10;99.90;;;;;;5040450;28;20596;-81
2022/08/08 01:22:36;;;;;;;3.33;2.55;;;14.10;99.90;;;;;;5035927;28;20041;-81
2022/08/08 01:25:30;;;;;;;3.30;2.75;;;14.10;99.90;;;;;;5042796;28;20048;-80
2022/08/08 01:28:13;;;;;;;4.40;3.10;;;14.10;99.90;;;;;;5043581;28;20090;-80
2022/08/08 01:31:03;;;;;;;4.28;2.70;;;14.10;99.90;;;;;;5042125;28;20562;-81
2022/08/08 01:33:34;;;;;;;5.53;3.25;;;14.10;99.90;;;;;;5045006;28;20052;-81
2022/08/08 01:36:22;;;;;;;4.28;2.60;;;14.10;99.90;;;;;;5042547;28;20044;-80
2022/08/08 01:38:56;;;;;;;5.07;2.80;;;14.00;99.90;;;;;;5043772;28;20121;-79
2022/08/08 01:41:40;;;;;;;3.05;2.63;;;14.00;99.90;;;;;;5035234;28;20058;-80
2022/08/08 01:44:33;;;;;;;3.03;2.72;;;14.00;99.90;;;;;;5035528;28;20040;-80
2022/08/08 01:47:38;;;;;;;4.95;3.55;;;14.00;99.90;;;;;;5035273;28;20037;-80
2022/08/08 01:50:11;;;;;;;4.53;3.22;;;14.00;99.90;;;;;;5038842;28;20077;-81
2022/08/08 01:53:28;;;;;;;4.57;3.30;;;13.90;99.90;;;;;;5040322;28;20318;-81
2022/08/08 01:56:12;;;;;;;4.97;2.80;;;14.00;99.90;;;;;;4989383;28;20030;-81
2022/08/08 01:59:07;;;;;;;4.32;3.20;;;13.90;99.90;;;;;;5044704;28;20033;-80
2022/08/08 02:01:48;;;;;;;5.53;3.13;;;13.90;99.90;;;;;;5039901;28;20041;-80
2022/08/08 02:04:43;;;;;;;4.80;3.47;;;13.90;99.90;;;;;;5040232;28;20044;-80
2022/08/08 02:08:00;;;;;;;5.88;3.38;;;13.90;99.90;;;;;;5030521;28;20094;-80
2022/08/08 02:10:59;;;;;;;6.70;4.00;;;13.90;99.90;;;;;;4970910;28;20495;-80
2022/08/08 02:13:41;;;;;;;7.50;3.90;;;14.00;99.90;;;;;;4954587;28;20057;-81
2022/08/08 02:16:27;;;;;;;4.90;3.88;;;14.00;99.90;;;;;;5026351;28;20048;-80
2022/08/08 02:19:02;;;;;;;4.50;3.90;;;14.00;99.90;;;;;;5048185;28;20523;-80
2022/08/08 02:24:57;;;;;;;5.45;4.13;;;14.00;99.90;;;;;;5024396;28;20072;-80
2022/08/08 02:27:32;;;;;;;5.07;4.05;;;14.10;99.90;;;;;;5038090;28;20045;-80
2022/08/08 02:30:12;;;;;;;6.20;4.38;;;14.10;99.90;;;;;;5039985;28;20047;-79
2022/08/08 02:32:59;;;;;;;6.65;3.60;;;14.10;99.90;;;;;;5037649;28;20037;-79
2022/08/08 02:35:34;;;;;;;5.68;3.80;;;14.10;99.90;;;;;;5037801;28;20040;-80
2022/08/08 02:38:23;;;;;;;5.20;3.70;;;14.10;99.90;;;;;;5021940;28;20041;-81
2022/08/08 02:41:26;;;;;;;5.95;4.50;;;14.10;99.90;;;;;;5039164;28;20501;-81
2022/08/08 02:43:54;;;;;;;6.57;4.13;;;14.10;99.90;;;;;;5038227;28;20040;-80
2022/08/08 02:46:32;;;;;;;8.20;4.15;;;14.00;99.90;;;;;;5040572;28;20494;-81
2022/08/08 02:49:37;;;;;;;6.32;4.90;;;14.10;99.90;;;;;;5039851;28;20473;-81
2022/08/08 02:52:24;;;;;;;7.03;4.72;;;14.10;99.90;;;;;;5035552;28;20474;-81
2022/08/08 02:55:03;;;;;;;7.32;4.50;;;14.10;99.90;;;;;;5038765;28;20033;-81
2022/08/08 02:57:35;;;;;;;8.98;4.70;;;14.00;99.90;;;;;;5049763;28;20044;-81
2022/08/08 03:00:21;;;;;;;7.78;4.82;;;14.00;99.90;;;;;;5037060;28;20501;-81
2022/08/08 03:03:23;;;;;;;6.18;4.90;;;14.00;99.90;;;;;;5025471;28;20041;-81
2022/08/08 03:05:55;;;;;;;7.95;5.05;;;14.00;99.90;;;;;;5039791;28;20429;-81
2022/08/08 03:08:45;;;;;;;6.78;4.63;;;14.00;99.90;;;;;;5036994;28;20042;-81
2022/08/08 03:11:33;;;;;;;5.80;4.97;;;14.10;99.90;;;;;;5043370;28;20487;-80
2022/08/08 03:14:08;;;;;;;;;;;14.10;99.90;;;;;;5034625;28;20080;-80
2022/08/08 03:17:10;;;;;;;7.00;4.40;;;14.10;99.90;;;;;;5040000;28;19932;-81
2022/08/08 03:20:10;;;;;;;5.50;4.80;;;14.20;99.90;;;;;;5015500;28;20508;-81
2022/08/08 03:22:47;;;;;;;7.55;5.18;;;14.30;99.90;;;;;;5026782;28;20029;-79
2022/08/08 03:25:16;;;;;;;7.90;5.30;;;14.30;99.90;;;;;;5039054;28;20125;-80
2022/08/08 03:28:01;;;;;;;9.10;5.13;;;14.30;99.90;;;;;;5041264;28;20041;-80
2022/08/08 03:30:27;;;;;;;6.57;5.20;;;14.30;99.90;;;;;;5040543;28;20068;-80
2022/08/08 03:35:39;;;;;;;6.90;5.13;;;14.20;99.90;;;;;;5018297;28;20051;-81
2022/08/08 03:38:06;;;;;;;6.72;4.60;;;14.20;99.90;;;;;;5033974;28;20034;-81
2022/08/08 03:40:32;;;;;;;8.52;5.55;;;14.20;99.90;;;;;;5038754;28;20064;-80
2022/08/08 03:42:58;;;;;;;8.65;5.07;;;14.20;99.90;;;;;;5018265;28;20099;-80
2022/08/08 03:45:25;;;;;;;;;;;14.20;99.90;;;;;;5031103;28;20084;-80
2022/08/08 03:48:09;;;;;;;9.50;5.10;;;14.20;99.90;;;;;;5039882;28;19916;-81
2022/08/08 03:50:39;;;;;;;7.65;4.90;;;14.20;99.90;;;;;;5043519;28;20436;-79
2022/08/08 03:53:11;;;;;;;7.03;4.78;;;14.10;99.90;;;;;;5041462;28;20125;-80
2022/08/08 03:55:39;;;;;;;7.63;5.25;;;14.20;99.90;;;;;;5033268;28;20038;-81
2022/08/08 03:58:05;;;;;;;9.25;4.90;;;14.20;99.90;;;;;;5046823;28;20040;-80
2022/08/08 04:00:31;;;;;;;6.55;4.63;;;14.10;99.90;;;;;;5045194;28;20041;-80
2022/08/08 04:03:06;;;;;;;5.80;4.88;;;14.10;99.90;;;;;;5045954;28;20037;-80
2022/08/08 04:05:34;;;;;;;6.40;5.25;;;14.10;99.90;;;;;;5045597;28;20075;-80
2022/08/08 04:08:02;;;;;;;8.73;5.32;;;14.10;99.90;;;;;;5050264;28;20060;-80
2022/08/08 04:10:29;;;;;;;7.85;5.10;;;14.10;99.90;;;;;;5026476;28;20032;-80
2022/08/08 04:12:55;;;;;;;6.93;5.40;;;14.00;99.90;;;;;;5040464;28;20033;-81
2022/08/08 04:15:21;;;;;;;7.07;5.63;;;14.00;99.90;;;;;;5038009;28;20076;-79
2022/08/08 04:17:47;;;;;;;9.48;5.60;;;13.90;99.90;;;;;;5020385;28;20041;-80
2022/08/08 04:20:13;;;;;;;7.20;4.85;;;14.00;99.90;;;;;;5039718;28;20183;-80
2022/08/08 04:22:40;;;;;;;5.80;4.88;;;14.00;99.90;;;;;;5042312;28;20142;-80
2022/08/08 04:25:07;;;;;;;7.63;5.35;;;14.00;99.90;;;;;;5037161;28;20038;-80
2022/08/08 04:27:34;;;;;;;6.68;5.50;;;14.00;99.90;;;;;;5042720;28;20049;-81
2022/08/08 04:30:05;;;;;;;6.30;5.20;;;14.00;99.90;;;;;;5026465;28;20038;-79
2022/08/08 04:32:31;;;;;;;7.93;5.05;;;14.00;99.90;;;;;;5040746;28;20037;-82
2022/08/08 04:34:56;;;;;;;8.10;6.00;;;14.00;99.90;;;;;;5027026;28;20100;-82
2022/08/08 04:37:22;;;;;;;6.50;4.97;;;14.00;99.90;;;;;;5012393;28;20081;-82
2022/08/08 04:39:48;;;;;;;6.95;5.07;;;14.00;99.90;;;;;;5002246;28;20052;-81
2022/08/08 04:42:14;;;;;;;6.60;4.70;;;14.00;99.90;;;;;;5036868;28;20045;-81
2022/08/08 04:44:40;;;;;;;7.57;5.20;;;13.90;99.90;;;;;;5025749;28;20025;-80
2022/08/08 04:47:06;;;;;;;8.30;5.10;;;14.00;99.90;;;;;;5028368;28;20496;-80
2022/08/08 04:49:32;;;;;;;;;;;13.90;99.90;;;;;;5050971;28;20029;-80
2022/08/08 04:51:57;;;;;;;10.73;5.18;;;13.90;99.90;;;;;;5026611;28;19995;-83
2022/08/08 04:54:23;;;;;;;7.57;4.88;;;14.00;99.90;;;;;;5025243;28;20053;-83
2022/08/08 04:56:49;;;;;;;7.18;4.80;;;14.00;99.90;;;;;;5021443;28;20084;-82
2022/08/08 04:59:15;;;;;;;7.93;5.05;;;14.10;99.90;;;;;;5035812;28;20119;-83
2022/08/08 05:01:40;;;;;;;8.50;5.00;;;14.10;99.90;;;;;;5021615;28;20121;-83
2022/08/08 05:04:06;;;;;;;7.43;4.88;;;14.20;99.90;;;;;;5034714;28;20029;-83
2022/08/08 05:06:32;;;;;;;7.57;5.23;;;14.20;99.90;;;;;;5018273;28;20094;-83
2022/08/08 05:08:58;;;;;;;12.32;5.03;;;14.20;99.90;;;;;;5021239;28;20283;-84
2022/08/08 05:11:24;;;;;;;7.43;4.60;;;14.20;99.90;;;;;;5034628;28;20038;-83
2022/08/08 05:13:50;;;;;;;10.10;4.78;;;14.20;99.90;;;;;;5016387;28;20041;-83
2022/08/08 05:16:16;;;;;;;7.25;4.93;;;14.20;99.90;;;;;;5015199;28;20128;-83
2022/08/08 05:18:42;;;;;;;8.00;5.15;;;14.20;99.90;;;;;;5036685;28;20044;-84
2022/08/08 05:21:08;;;;;;;10.30;5.15;;;14.30;99.90;;;;;;5034965;28;20124;-84
2022/08/08 05:23:34;;;;;;;7.28;5.15;;;14.30;99.90;;;;;;5028612;28;20041;-84
2022/08/08 05:26:01;;;;;;;8.73;4.90;;;14.40;99.90;;;;;;5004981;28;20099;-84
2022/08/08 05:28:27;;;;;;;6.50;4.75;;;14.40;99.90;;;;;;5011402;28;20083;-83
2022/08/08 05:30:52;;;;;;;6.13;4.45;;;14.40;99.90;;;;;;5034560;28;20041;-84
2022/08/08 05:33:18;;;;;;;8.35;5.03;;;14.50;99.90;;;;;;5017964;28;20478;-83
2022/08/08 05:35:46;;;;;;;6.15;4.53;;;14.50;99.90;;;;;;5019782;28;20037;-84
2022/08/08 05:38:17;;;;;;;6.10;4.53;;;14.60;99.90;;;;;;5050644;28;20501;-84
2022/08/08 05:40:48;;;;;;;6.70;4.45;;;14.70;99.90;;;;;;5005917;28;20048;-85
2022/08/08 05:43:28;;;;;;;6.07;4.75;;;14.70;99.90;;;;;;5037903;28;20044;-83
2022/08/08 05:46:01;;;;;;;8.98;5.28;;;14.90;99.90;;;;;;5037361;28;20041;-84
2022/08/08 05:48:27;;;;;;;7.00;4.85;;;15.10;99.90;;;;;;5034394;28;20041;-84
2022/08/08 05:50:53;;;;;;;7.88;5.43;;;15.20;99.90;;;;;;5036085;28;20106;-83
2022/08/08 05:53:30;;;;;;;7.35;5.35;;;15.50;99.90;;;;;;5051505;28;20118;-83
2022/08/08 05:55:59;;;;;;;8.75;5.68;;;15.60;99.90;;;;;;5029974;28;20037;-84
2022/08/08 05:58:30;;;;;;;7.10;4.78;;;15.80;99.90;;;;;;5037336;28;20183;-84
2022/08/08 06:00:58;;;;;;;10.13;5.40;;;15.80;99.90;;;;;;5034551;28;20081;-84
2022/08/08 06:03:29;;;;;;;8.70;5.13;;;15.90;99.90;;;;;;5037110;28;20037;-85
2022/08/08 06:05:58;;;;;;;9.57;5.10;;;16.00;99.90;;;;;;5053813;28;20037;-84
2022/08/08 06:08:30;;;;;;;7.65;5.32;;;16.00;99.90;;;;;;5053709;28;20044;-84
2022/08/08 06:10:57;;;;;;;8.40;4.93;;;16.10;99.90;;;;;;5037315;28;20456;-84
2022/08/08 06:13:25;;;;;;;6.38;4.85;;;16.10;99.90;;;;;;5037344;28;20049;-84
2022/08/08 06:15:55;;;;;;;7.32;5.03;;;16.10;99.90;;;;;;5028291;28;20388;-83
2022/08/08 06:18:25;;;;;;;7.78;5.00;;;16.20;99.90;;;;;;5033385;28;20124;-83
2022/08/08 06:20:59;;;;;;;6.30;5.03;;;16.30;99.90;;;;;;5016414;28;20037;-84
2022/08/08 06:23:26;;;;;;;8.80;5.45;;;16.30;99.90;;;;;;5025557;28;20041;-85
2022/08/08 06:26:07;;;;;;;6.88;5.18;;;16.40;99.90;;;;;;5018199;28;20037;-84
2022/08/08 06:28:36;;;;;;;6.70;5.10;;;16.40;99.90;;;;;;5018286;28;20123;-84
2022/08/08 06:31:05;;;;;;;7.38;5.07;;;16.50;99.90;;;;;;5021871;28;20041;-84
2022/08/08 06:33:41;;;;;;;8.32;5.55;;;16.50;99.90;;;;;;5053675;28;20085;-84
2022/08/08 06:36:10;;;;;;;9.05;5.18;;;16.50;99.90;;;;;;5048860;28;20045;-84
2022/08/08 06:38:39;;;;;;;9.02;4.60;;;16.70;99.90;;;;;;5003597;28;20124;-84
2022/08/08 06:41:11;;;;;;;8.75;4.55;;;16.80;99.90;;;;;;5033569;28;20528;-84
2022/08/08 06:43:42;;;;;;;8.60;4.80;;;17.00;99.90;;;;;;5043429;28;20041;-83
2022/08/08 06:46:08;;;;;;;6.95;4.55;;;17.10;99.90;;;;;;5037027;28;20114;-84
2022/08/08 06:48:34;;;;;;;;;;;17.20;99.90;;;;;;5020784;28;20041;-83
2022/08/08 06:51:02;;;;;;;7.65;4.32;;;17.30;99.90;;;;;;5028111;28;19996;-84
2022/08/08 06:53:29;;;;;;;8.48;4.30;;;17.40;99.90;;;;;;5016640;28;20044;-84
2022/08/08 06:55:56;;;;;;;6.78;4.40;;;17.50;99.90;;;;;;5012864;28;20049;-84
2022/08/08 06:58:22;;;;;;;7.15;4.47;;;17.60;99.90;;;;;;5032706;28;20053;-84
2022/08/08 07:00:50;;;;;;;6.72;4.50;;;17.80;99.90;;;;;;5000160;28;20043;-85
2022/08/08 07:03:31;;;;;;;8.60;4.10;;;18.00;99.90;;;;;;5035890;28;20059;-84
2022/08/08 07:05:59;;;;;;;8.13;3.78;;;18.30;99.90;;;;;;5053096;28;20095;-85
2022/08/08 07:08:33;;;;;;;6.78;4.10;;;18.90;99.90;;;;;;5051127;28;20068;-84
2022/08/08 07:11:07;;;;;;;7.72;3.75;;;19.70;99.90;;;;;;5031398;28;20041;-84
2022/08/08 07:13:38;;;;;;;5.43;3.45;;;20.40;99.90;;;;;;5040379;28;20045;-84
2022/08/08 07:16:15;;;;;;;6.10;3.10;;;21.10;99.90;;;;;;5028468;28;20401;-85
2022/08/08 07:19:04;;;;;;;;;;;21.70;99.90;;;;;;5057449;28;20047;-84
2022/08/08 07:21:41;;;;;;;6.57;2.83;;;22.20;99.90;;;;;;5038828;28;19917;-84
2022/08/08 07:24:18;;;;;;;5.32;2.60;;;22.50;99.90;;;;;;5024051;28;20033;-84
2022/08/08 07:26:46;;;;;;;5.65;3.08;;;22.60;99.90;;;;;;5041888;28;20038;-85
2022/08/08 07:29:13;;;;;;;6.32;2.90;;;22.30;99.90;;;;;;5033231;28;20068;-85
2022/08/08 07:31:40;;;;;;;5.28;2.67;;;21.90;99.90;;;;;;5021019;28;20040;-85
2022/08/08 07:34:06;;;;;;;7.25;2.70;;;21.70;99.90;;;;;;5039312;28;20543;-85
2022/08/08 07:36:32;;;;;;;7.40;2.40;;;21.50;99.90;;;;;;5004201;28;20037;-84
2022/08/08 07:39:00;;;;;;;5.05;2.80;;;21.20;99.90;;;;;;5004461;28;20041;-85
2022/08/08 07:41:28;;;;;;;5.32;2.75;;;21.10;99.90;;;;;;5052614;28;20060;-84
2022/08/08 07:43:57;;;;;;;6.88;2.30;;;21.20;99.90;;;;;;5023934;28;20041;-83
2022/08/08 07:46:23;;;;;;;3.42;1.73;;;21.40;99.90;;;;;;5023494;28;20102;-85
2022/08/08 07:48:49;;;;;;;;;;;21.70;99.90;;;;;;5024044;28;20132;-85
2022/08/08 07:51:16;;;;;;;4.57;2.05;;;22.00;99.90;;;;;;5023539;28;19968;-83
2022/08/08 07:53:45;;;;;;;5.97;1.65;;;22.50;99.90;;;;;;5059859;28;20045;-84
2022/08/08 07:56:16;;;;;;;4.45;1.67;;;22.80;99.90;;;;;;5024414;28;20045;-84
2022/08/08 07:58:44;;;;;;;4.70;1.30;;;23.10;99.90;;;;;;5047268;28;20045;-85
2022/08/08 08:01:16;;;;;;;4.22;1.58;;;23.40;99.90;;;;;;5039956;28;20075;-84
2022/08/08 08:04:03;;;;;;;6.07;1.60;;;23.70;99.90;;;;;;5034904;28;20038;-84
2022/08/08 08:06:32;;;;;;;3.28;1.50;;;24.00;99.90;;;;;;5024470;28;20044;-85
2022/08/08 08:09:18;;;;;;;2.63;1.38;;;24.20;99.90;;;;;;5055741;28;20053;-84
2022/08/08 08:11:49;;;;;;;2.30;0.73;;;24.40;99.90;;;;;;5027515;28;20556;-84
2022/08/08 08:14:18;;;;;;;2.75;0.82;;;24.50;99.90;;;;;;5003207;28;20041;-84
2022/08/08 08:16:46;;;;;;;3.85;0.90;;;24.70;99.90;;;;;;5018996;28;20103;-84
2022/08/08 08:19:13;;;;;;;1.55;0.32;;;24.90;99.90;;;;;;5019801;28;20045;-85
2022/08/08 08:21:41;;;;;;;2.63;0.50;;;24.90;99.90;;;;;;5002900;28;20041;-84
2022/08/08 08:24:08;;;;;;;3.05;0.70;;;25.10;99.90;;;;;;5035872;28;20371;-84
2022/08/08 08:26:33;;;;;;;2.28;0.60;;;25.20;99.90;;;;;;5019386;28;20056;-84
2022/08/08 08:28:59;;;;;;;1.80;0.50;;;25.30;99.90;;;;;;5019284;28;20037;-84
2022/08/08 08:31:25;;;;;;;1.90;0.50;;;25.70;99.60;;;;;;5019350;28;20033;-83
2022/08/08 08:33:51;;;;;;;2.65;1.00;;;26.10;99.80;;;;;;5002316;28;20034;-84
2022/08/08 08:36:17;;;;;;;2.83;0.50;;;26.00;99.80;;;;;;5002872;28;20096;-84
2022/08/08 08:38:44;;;;;;;3.90;0.70;;;25.80;99.90;;;;;;5031566;28;20037;-84
2022/08/08 08:41:11;;;;;;;1.90;0.40;;;25.50;99.40;;;;;;5052691;28;20441;-83
2022/08/08 08:43:39;;;;;;;2.70;0.52;;;25.00;99.20;;;;;;4986935;28;20041;-83
2022/08/08 08:46:09;;;;;;;1.48;0.70;;;24.60;99.70;;;;;;5031953;28;20037;-83
2022/08/08 08:48:35;;;;;;;2.60;0.40;;;24.30;99.70;;;;;;5032064;28;20505;-84
2022/08/08 08:51:03;;;;;;;1.23;0.40;;;24.30;99.90;;;;;;5045845;28;20041;-84
2022/08/08 08:53:35;;;;;;;2.30;0.40;;;24.00;99.90;;;;;;5036232;28;20041;-83
2022/08/08 08:56:01;;;;;;;1.60;0.30;;;23.90;99.80;;;;;;5043840;28;20037;-83
2022/08/08 08:58:31;;;;;;;2.60;0.50;;;23.70;99.90;;;;;;5039950;28;20036;-83
2022/08/08 09:01:00;;;;;;;1.98;0.50;;;23.60;99.60;;;;;;5056556;28;20045;-84
2022/08/08 09:03:27;;;;;;;2.30;0.70;;;23.50;99.70;;;;;;5047486;28;20040;-84
2022/08/08 09:05:54;;;;;;;1.88;0.45;;;23.20;99.90;;;;;;5009556;28;20033;-84
2022/08/08 09:08:23;;;;;;;1.75;0.60;;;23.20;99.90;;;;;;5015573;28;20044;-83
2022/08/08 09:10:50;;;;;;;1.55;0.60;;;23.00;99.90;;;;;;5010447;28;20038;-83
2022/08/08 09:13:16;;;;;;;1.88;0.50;;;23.00;99.90;;;;;;5055134;28;20036;-84
2022/08/08 09:15:43;;;;;;;2.95;0.70;;;23.00;99.90;;;;;;5018613;28;20045;-84
2022/08/08 09:18:09;;;;;;;3.72;0.93;;;22.90;99.90;;;;;;5036393;28;20112;-84
2022/08/08 09:20:36;;;;;;;2.75;0.88;;;22.90;99.90;;;;;;5040049;28;20116;-83
2022/08/08 09:23:03;;;;;;;4.32;0.88;;;22.80;99.90;;;;;;5007906;28;20569;-84
2022/08/08 09:25:31;;;;;;;2.22;0.80;;;22.80;99.90;;;;;;5009571;28;20084;-84
2022/08/08 09:27:58;;;;;;;3.70;0.60;;;22.80;99.90;;;;;;5035135;28;20033;-83
2022/08/08 09:30:26;;;;;;;3.47;0.73;;;22.80;99.90;;;;;;5035229;28;20124;-84
2022/08/08 09:32:56;;;;;;;2.20;0.70;;;22.80;99.90;;;;;;5022483;28;20044;-83
2022/08/08 09:35:27;;;;;;;1.83;0.52;;;22.80;99.90;;;;;;5052365;28;20052;-83
2022/08/08 09:38:02;;;;;;;2.00;0.70;;;22.80;99.90;;;;;;5038421;28;20076;-83
2022/08/08 09:40:31;;;;;;;2.53;0.55;;;22.90;99.90;;;;;;5041012;28;20179;-83
2022/08/08 09:43:27;;;;;;;1.80;0.47;;;22.90;99.90;;;;;;5036707;28;20401;-84
2022/08/08 09:46:00;;;;;;;2.60;0.50;;;22.90;99.90;;;;;;5054511;28;20045;-84
2022/08/08 09:48:34;;;;;;;1.08;0.65;;;23.10;99.90;;;;;;5054763;28;20083;-83
2022/08/08 09:51:01;;;;;;;3.28;0.57;;;23.20;99.90;;;;;;5032300;28;20045;-84
2022/08/08 09:53:52;;;;;;;2.90;0.60;;;23.30;99.90;;;;;;5035637;28;20045;-83
2022/08/08 09:56:20;;;;;;;1.88;0.40;;;23.50;99.90;;;;;;5023109;28;20045;-84
2022/08/08 09:59:03;;;;;;;0.98;0.40;;;23.50;99.90;;;;;;5003942;28;20048;-83
2022/08/08 10:01:32;;;;;;;1.42;0.57;;;23.50;99.70;;;;;;5030145;28;20045;-83
2022/08/08 10:03:59;;;;;;;1.70;0.40;;;23.50;99.90;;;;;;4999722;28;20041;-84
2022/08/08 10:06:25;;;;;;;1.98;0.57;;;23.40;99.90;;;;;;5019014;28;20037;-83
2022/08/08 10:08:51;;;;;;;;;;;23.50;99.90;;;;;;5035385;28;20079;-83
2022/08/08 10:11:22;;;;;;;1.43;0.60;;;23.60;99.90;;;;;;5050953;28;20376;-83
2022/08/08 10:13:58;;;;;;;2.45;0.47;;;23.60;99.90;;;;;;5018577;28;20080;-83
2022/08/08 10:16:36;;;;;;;1.45;0.50;;;23.60;99.90;;;;;;5008814;28;20501;-83
2022/08/08 10:19:03;;;;;;;1.77;0.50;;;23.70;99.90;;;;;;5028665;28;20398;-83
2022/08/08 10:21:35;;;;;;;2.38;0.50;;;23.90;99.90;;;;;;5031658;28;20091;-83
2022/08/08 10:24:05;;;;;;;3.28;0.70;;;24.00;99.90;;;;;;5017879;28;20053;-84
2022/08/08 10:26:40;;;;;;;3.30;0.60;;;24.20;99.90;;;;;;5029038;28;20042;-83
2022/08/08 10:29:13;;;;;;;1.73;0.57;;;24.30;99.90;;;;;;5034284;28;20052;-83
2022/08/08 10:34:27;;;;;;;;;;;24.40;99.90;;;;;;5037338;28;20452;-83
2022/08/08 10:36:55;;;;;;;3.45;0.50;;;24.50;99.90;;;;;;5050410;28;19928;-82
2022/08/08 10:39:26;;;;;;;1.60;0.70;;;24.30;99.90;;;;;;5043483;28;20045;-84
2022/08/08 10:42:03;;;;;;;4.80;0.47;;;24.30;99.90;;;;;;5038728;28;20126;-83
2022/08/08 10:44:36;;;;;;;1.98;0.52;;;24.50;99.90;;;;;;5017115;28;20081;-83
2022/08/08 10:47:12;;;;;;;3.10;0.88;;;24.60;99.90;;;;;;5017223;28;20079;-83
2022/08/08 10:49:55;;;;;;;1.60;0.57;;;24.70;99.90;;;;;;5018145;28;20041;-83
2022/08/08 10:52:36;;;;;;;2.17;0.60;;;24.50;99.90;;;;;;5018178;28;20049;-82
2022/08/08 10:57:48;;;;;;;3.47;0.47;;;24.50;99.90;;;;;;5486886;22;20557;-83
2022/08/08 11:00:23;;;;;;;3.60;0.88;;;24.70;99.90;;;;;;5015834;28;20553;-83
2022/08/08 11:02:49;;;;;;;4.28;0.52;;;24.80;99.70;;;;;;5013103;28;20040;-84
2022/08/08 11:05:15;;;;;;;;;;;24.70;99.00;;;;;;4985364;28;20125;-84
2022/08/08 11:07:46;;;;;;;2.00;0.43;;;24.70;98.70;;;;;;5001602;28;19956;-83
2022/08/08 11:10:14;;;;;;;3.45;0.50;;;24.80;99.20;;;;;;5033334;28;20505;-83
2022/08/08 11:12:47;;;;;;;5.10;0.68;;;24.80;99.40;;;;;;5011119;28;20124;-84
2022/08/08 11:15:19;;;;;;;1.92;0.73;;;24.80;99.90;;;;;;5030555;28;20068;-83
2022/08/08 11:17:46;;;;;;;2.35;0.85;;;24.70;99.90;;;;;;5014268;28;20070;-84
2022/08/08 11:20:18;;;;;;;3.80;1.13;;;24.60;99.90;;;;;;4998041;28;20038;-84
2022/08/08 11:22:57;;;;;;;2.30;0.82;;;24.50;99.90;;;;;;5025634;28;20050;-83
2022/08/08 11:25:26;;;;;;;4.15;0.85;;;24.50;99.90;;;;;;5000776;28;20050;-83
2022/08/08 11:27:56;;;;;;;2.97;0.57;;;24.40;99.90;;;;;;5020460;28;20132;-83
2022/08/08 11:30:26;;;;;;;1.10;0.55;;;24.20;99.90;;;;;;4998713;28;20379;-83
2022/08/08 11:32:54;;;;;;;1.85;0.60;;;24.20;99.90;;;;;;5012045;28;20056;-83
2022/08/08 11:35:21;;;;;;;3.05;0.52;;;24.20;99.90;;;;;;5034370;28;20077;-83
2022/08/08 11:37:47;;;;;;;2.03;0.43;;;24.10;99.90;;;;;;5017434;28;20095;-83
2022/08/08 11:40:13;;;;;;;;;;;24.00;99.90;;;;;;4993822;28;20085;-83
2022/08/08 11:42:41;;;;;;;3.13;0.60;;;24.00;99.80;;;;;;5004477;28;20018;-83
2022/08/08 11:45:08;;;;;;;2.05;0.40;;;24.10;99.70;;;;;;5000945;28;20076;-83
2022/08/08 11:47:35;;;;;;;1.75;0.40;;;24.10;99.30;;;;;;4993558;28;20045;-83
2022/08/08 11:50:21;;;;;;;2.13;0.50;;;24.10;99.50;;;;;;5034135;28;20494;-83
2022/08/08 11:52:48;;;;;;;2.20;0.60;;;24.00;99.10;;;;;;5016307;28;20132;-82
2022/08/08 11:55:18;;;;;;;2.72;0.50;;;24.00;99.50;;;;;;4995306;28;20048;-83
2022/08/08 11:57:45;;;;;;;2.53;0.50;;;24.00;99.60;;;;;;4980011;28;20513;-83
2022/08/08 12:00:17;;;;;;;1.75;0.50;;;24.10;99.90;;;;;;5013568;28;20132;-83
2022/08/08 12:02:48;;;;;;;2.90;0.50;;;24.20;99.90;;;;;;4997704;28;20044;-83
2022/08/08 12:05:15;;;;;;;1.25;0.40;;;24.30;99.10;;;;;;5025266;28;20128;-83
2022/08/08 12:07:52;;;;;;;2.85;0.55;;;24.20;99.40;;;;;;4992504;28;20050;-83
2022/08/08 12:10:22;;;;;;;2.00;0.60;;;24.20;99.20;;;;;;5023406;28;20038;-83
2022/08/08 12:12:49;;;;;;;1.50;0.35;;;24.30;98.90;;;;;;5028942;28;20096;-83
2022/08/08 12:15:34;;;;;;;2.42;0.50;;;24.30;99.00;;;;;;5001890;28;20052;-82
2022/08/08 12:18:00;;;;;;;0.98;0.47;;;24.40;98.80;;;;;;5014511;28;20046;-83
2022/08/08 12:20:39;;;;;;;2.00;0.50;;;24.40;99.10;;;;;;5030483;28;20448;-83
2022/08/08 12:23:05;;;;;;;2.75;0.50;;;24.40;99.10;;;;;;5006397;28;20458;-83
2022/08/08 12:25:32;;;;;;;;;;;24.20;99.10;;;;;;5038792;28;20033;-83
2022/08/08 12:28:11;;;;;;;1.75;0.55;;;24.10;99.30;;;;;;5019775;28;19917;-83
2022/08/08 12:30:37;;;;;;;2.33;0.52;;;24.00;99.50;;;;;;5003287;28;20049;-84
2022/08/08 12:33:02;;;;;;;;;;;23.90;99.90;;;;;;5014360;28;20516;-83
2022/08/08 12:35:38;;;;;;;4.22;0.90;;;23.90;99.90;;;;;;5003563;28;19924;-83
2022/08/08 12:38:06;;;;;;;3.03;0.60;;;23.80;99.90;;;;;;5036538;28;20409;-83
2022/08/08 12:40:44;;;;;;;1.80;0.50;;;23.70;99.90;;;;;;5034735;28;20068;-84
2022/08/08 12:43:10;;;;;;;3.28;0.50;;;23.70;99.90;;;;;;5016725;28;20038;-84
2022/08/08 12:45:44;;;;;;;2.28;0.50;;;23.60;99.70;;;;;;5016135;28;20038;-84
2022/08/08 12:48:20;;;;;;;1.10;0.47;;;23.70;99.80;;;;;;4991034;28;20472;-83
2022/08/08 12:50:53;;;;;;;1.97;0.50;;;23.60;98.90;;;;;;5000152;28;20081;-83
2022/08/08 12:53:32;;;;;;;2.45;0.50;;;23.70;99.40;;;;;;5006744;28;20060;-83
2022/08/08 12:56:04;;;;;;;2.45;0.75;;;23.80;99.20;;;;;;5018792;28;20516;-83
2022/08/08 12:58:47;;;;;;;1.67;0.50;;;24.00;99.90;;;;;;5019015;28;20089;-83
2022/08/08 13:01:13;;;;;;;1.73;0.63;;;24.20;99.70;;;;;;5035455;28;20125;-83
2022/08/08 13:03:46;;;;;;;;;;;24.30;99.90;;;;;;5016945;28;20084;-83
2022/08/08 13:06:19;;;;;;;1.70;0.47;;;24.40;99.90;;;;;;5032697;28;20254;-83
2022/08/08 13:08:50;;;;;;;3.97;0.98;;;24.40;99.70;;;;;;5025615;28;20042;-83
2022/08/08 13:11:25;;;;;;;2.80;0.45;;;24.80;99.90;;;;;;5035765;28;20044;-83
2022/08/08 13:14:14;;;;;;;2.17;0.63;;;25.40;99.30;;;;;;5028625;28;20038;-84
2022/08/08 13:16:41;;;;;;;4.05;0.70;;;25.90;99.00;;;;;;5036515;28;20037;-83
2022/08/08 13:19:08;;;;;;;1.88;0.68;;;26.20;98.80;;;;;;5024628;28;20394;-83
2022/08/08 13:21:45;;;;;;;4.15;0.60;;;26.40;98.90;;;;;;5019291;28;20045;-83
2022/08/08 13:24:12;;;;;;;3.00;0.50;;;26.70;98.20;;;;;;5016084;28;20545;-82
2022/08/08 13:26:37;;;;;;;2.15;0.50;;;26.60;98.00;;;;;;5037504;28;20046;-83
2022/08/08 13:29:12;;;;;;;2.70;0.60;;;26.10;97.60;;;;;;5009719;28;20052;-82
2022/08/08 13:31:48;;;;;;;2.20;0.60;;;25.60;98.10;;;;;;5032070;28;20052;-83
2022/08/08 13:34:22;;;;;;;2.20;0.63;;;25.20;98.90;;;;;;5017368;28;20445;-83
2022/08/08 13:36:50;;;;;;;4.38;0.60;;;25.00;99.40;;;;;;5011783;28;20143;-83